Time;durP1;ratioP1;P1;durP2;ratioP2;P2;SDS_P1;SDS_P2;PMS_P1;PMS_P2;Temp;Humidity;BMP_temperature;BMP_pressure;BME280_temperature;BME280_humidity;BME280_pressure;Samples;Min_cycle;Max_cycle;Signal;HPM_P1;HPM_P2
2023/01/05 00:01:51;;;;;;;35.83;5.25;;;11.00;99.90;;;;;;4989462;28;20445;-45
2023/01/05 00:04:16;;;;;;;30.67;4.25;;;11.10;99.90;;;;;;4991782;28;20572;-48
2023/01/05 00:06:42;;;;;;;33.90;5.72;;;11.10;99.90;;;;;;4975040;28;20359;-45
2023/01/05 00:09:11;;;;;;;40.42;5.32;;;11.10;99.90;;;;;;4990764;28;20026;-47
2023/01/05 00:22:52;;;;;;;36.30;5.40;;;10.90;99.90;;;;;;4992186;28;20500;-47
2023/01/05 00:25:26;;;;;;;35.83;4.80;;;10.80;99.90;;;;;;4980361;28;20495;-51
2023/01/05 00:27:52;;;;;;;27.35;4.65;;;10.70;99.90;;;;;;4989114;28;20046;-49
2023/01/05 00:30:26;;;;;;;32.33;5.65;;;10.70;99.90;;;;;;4984812;28;20034;-46
2023/01/05 00:32:52;;;;;;;32.30;5.50;;;10.80;99.90;;;;;;4982984;28;20031;-44
2023/01/05 00:35:18;;;;;;;32.83;4.63;;;10.80;99.90;;;;;;4979955;28;20045;-45
2023/01/05 00:37:44;;;;;;;32.85;5.07;;;10.90;99.90;;;;;;4974437;28;20414;-45
2023/01/05 00:40:13;;;;;;;29.08;4.63;;;10.90;99.90;;;;;;4972518;28;20060;-44
2023/01/05 00:42:38;;;;;;;23.70;4.33;;;10.90;99.90;;;;;;4972364;28;20065;-45
2023/01/05 00:45:07;;;;;;;33.90;5.28;;;10.80;99.90;;;;;;4984359;28;20034;-45
2023/01/05 00:47:32;;;;;;;39.72;5.13;;;10.80;99.90;;;;;;4988371;28;20060;-48
2023/01/05 00:49:58;;;;;;;25.63;4.60;;;10.80;99.90;;;;;;4987054;28;20085;-46
2023/01/05 00:52:24;;;;;;;26.65;4.63;;;10.80;99.90;;;;;;4991500;28;20092;-47
2023/01/05 00:54:50;;;;;;;33.28;5.25;;;10.90;99.90;;;;;;4983900;28;20099;-43
2023/01/05 00:57:15;;;;;;;32.25;5.00;;;10.90;99.90;;;;;;4988615;28;20466;-45
2023/01/05 00:59:41;;;;;;;33.17;4.30;;;11.00;99.90;;;;;;4988947;28;20034;-43
2023/01/05 01:02:07;;;;;;;43.80;4.38;;;10.90;99.90;;;;;;4990233;28;20026;-50
2023/01/05 01:04:34;;;;;;;30.85;4.72;;;10.90;99.90;;;;;;4977673;28;20029;-48
2023/01/05 01:07:00;;;;;;;33.72;4.28;;;10.80;99.90;;;;;;4974401;28;20027;-45
2023/01/05 01:09:26;;;;;;;38.40;4.68;;;10.80;99.90;;;;;;4974435;28;20429;-46
2023/01/05 01:11:52;;;;;;;36.53;4.65;;;10.70;99.90;;;;;;4973140;28;20101;-50
2023/01/05 01:14:17;;;;;;;34.53;4.80;;;10.70;99.90;;;;;;4973056;28;20019;-46
2023/01/05 01:16:44;;;;;;;33.55;4.75;;;10.70;99.90;;;;;;4972269;28;20421;-44
2023/01/05 01:19:15;;;;;;;33.13;6.38;;;10.70;99.90;;;;;;4974359;28;20070;-52
2023/01/05 01:21:41;;;;;;;35.72;5.53;;;10.70;99.90;;;;;;4990597;28;20032;-44
2023/01/05 01:24:07;;;;;;;27.75;4.68;;;10.70;99.90;;;;;;4984610;28;20023;-44
2023/01/05 01:26:33;;;;;;;31.48;4.90;;;10.60;99.90;;;;;;4971157;28;20069;-45
2023/01/05 01:28:58;;;;;;;30.58;4.30;;;10.70;99.90;;;;;;4985043;28;20181;-45
2023/01/05 01:31:24;;;;;;;30.33;5.30;;;10.70;99.90;;;;;;4988463;28;20031;-48
2023/01/05 01:33:50;;;;;;;30.17;4.95;;;10.70;99.90;;;;;;4958490;28;20019;-44
2023/01/05 01:36:16;;;;;;;43.97;7.00;;;10.70;99.90;;;;;;4979382;28;20371;-49
2023/01/05 01:38:41;;;;;;;32.30;4.90;;;10.60;99.90;;;;;;4990701;28;20025;-44
2023/01/05 01:41:07;;;;;;;39.70;4.78;;;10.70;99.90;;;;;;4980655;28;20069;-44
2023/01/05 01:43:48;;;;;;;38.53;5.32;;;10.60;99.90;;;;;;4988511;28;20018;-45
2023/01/05 01:46:15;;;;;;;28.83;4.40;;;10.60;99.90;;;;;;4977325;28;20495;-45
2023/01/05 01:49:04;;;;;;;42.47;6.68;;;10.60;99.90;;;;;;4988991;28;20019;-45
2023/01/05 01:51:34;;;;;;;39.63;4.83;;;10.60;99.90;;;;;;4980812;28;20510;-48
2023/01/05 01:54:10;;;;;;;35.97;4.38;;;10.60;99.90;;;;;;4975304;28;20213;-47
2023/01/05 01:56:40;;;;;;;33.80;5.10;;;10.60;99.90;;;;;;4973006;28;20481;-45
2023/01/05 01:59:05;;;;;;;;;;;10.60;99.90;;;;;;4975382;28;20053;-45
2023/01/05 02:01:31;;;;;;;37.75;5.70;;;10.70;99.90;;;;;;4972589;28;19986;-48
2023/01/05 02:03:59;;;;;;;41.33;5.57;;;10.70;99.90;;;;;;4976184;28;20022;-46
2023/01/05 02:06:25;;;;;;;41.78;5.40;;;10.70;99.90;;;;;;4980062;28;20120;-45
2023/01/05 02:08:50;;;;;;;25.33;3.95;;;10.70;99.90;;;;;;4978848;28;20101;-45
2023/01/05 02:11:25;;;;;;;32.60;4.63;;;10.70;99.90;;;;;;4989113;28;20033;-45
2023/01/05 02:14:22;;;;;;;36.03;5.00;;;10.60;99.90;;;;;;4990730;28;20405;-48
2023/01/05 02:17:14;;;;;;;31.75;3.97;;;10.60;99.90;;;;;;4979622;28;20018;-47
2023/01/05 02:19:54;;;;;;;32.83;5.25;;;10.60;99.90;;;;;;4990452;28;20070;-50
2023/01/05 02:22:47;;;;;;;38.30;5.35;;;10.60;99.90;;;;;;4990758;28;20057;-47
2023/01/05 02:25:34;;;;;;;36.85;5.13;;;10.60;99.90;;;;;;4978734;28;20038;-48
2023/01/05 02:28:17;;;;;;;40.75;4.95;;;10.60;99.90;;;;;;4990264;28;20101;-48
2023/01/05 02:31:05;;;;;;;38.80;5.45;;;10.60;99.90;;;;;;4990740;28;20127;-47
2023/01/05 02:34:18;;;;;;;34.72;5.22;;;10.60;99.90;;;;;;4988449;28;20046;-45
2023/01/05 02:36:53;;;;;;;38.85;5.55;;;10.60;99.90;;;;;;4974693;28;20034;-56
2023/01/05 02:39:44;;;;;;;27.02;4.60;;;10.60;99.90;;;;;;4981682;28;20096;-51
2023/01/05 02:42:19;;;;;;;37.53;4.90;;;10.60;99.90;;;;;;4994200;28;20076;-55
2023/01/05 02:44:45;;;;;;;31.90;4.78;;;10.60;99.90;;;;;;4993867;28;20030;-47
2023/01/05 02:47:26;;;;;;;32.47;5.90;;;10.60;99.90;;;;;;4994592;28;20022;-49
2023/01/05 02:50:07;;;;;;;33.80;4.57;;;10.60;99.90;;;;;;4993874;28;20105;-48
2023/01/05 02:52:53;;;;;;;32.80;5.13;;;10.60;99.90;;;;;;4977379;28;20037;-49
2023/01/05 02:55:25;;;;;;;28.05;4.72;;;10.60;99.90;;;;;;4994210;28;20034;-56
2023/01/05 02:58:03;;;;;;;36.92;5.72;;;10.60;99.90;;;;;;4994012;28;20077;-43
2023/01/05 03:00:39;;;;;;;33.90;4.78;;;10.60;99.90;;;;;;4993753;28;20046;-46
2023/01/05 03:03:15;;;;;;;30.10;4.75;;;10.60;99.90;;;;;;4993834;28;20019;-51
2023/01/05 03:05:50;;;;;;;43.72;5.35;;;10.60;99.90;;;;;;4993726;28;20531;-52
2023/01/05 03:08:21;;;;;;;26.45;4.70;;;10.60;99.90;;;;;;4993606;28;20077;-46
2023/01/05 03:14:14;;;;;;;19.88;4.25;;;10.60;99.90;;;;;;4993671;28;20073;-45
2023/01/05 03:16:42;;;;;;;26.85;4.15;;;10.60;99.90;;;;;;4980978;28;20045;-44
2023/01/05 03:36:11;;;;;;;29.73;5.22;;;10.60;99.90;;;;;;4993474;28;20399;-51
2023/01/05 03:38:46;;;;;;;28.92;3.92;;;10.60;99.90;;;;;;4993086;28;20486;-47
2023/01/05 03:41:14;;;;;;;33.38;4.82;;;10.50;99.90;;;;;;4993127;28;20031;-51
2023/01/05 03:43:41;;;;;;;36.55;5.32;;;10.60;99.90;;;;;;4993278;28;20054;-45
2023/01/05 03:46:13;;;;;;;30.10;4.82;;;10.50;99.90;;;;;;4992723;28;20022;-48
2023/01/05 03:48:39;;;;;;;32.67;4.88;;;10.50;99.90;;;;;;4993085;28;20026;-50
2023/01/05 03:51:05;;;;;;;36.45;4.65;;;10.50;99.90;;;;;;4992759;28;20073;-45
2023/01/05 03:53:31;;;;;;;42.00;5.18;;;10.50;99.90;;;;;;4992872;28;20036;-45
2023/01/05 03:55:57;;;;;;;30.73;4.57;;;10.50;99.90;;;;;;4992876;28;20030;-45
2023/01/05 03:58:22;;;;;;;30.85;4.75;;;10.50;99.90;;;;;;4992784;28;20057;-52
2023/01/05 04:00:48;;;;;;;34.00;4.80;;;10.50;99.90;;;;;;4992792;28;20512;-44
2023/01/05 04:03:13;;;;;;;38.63;4.78;;;10.50;99.90;;;;;;4992568;28;20033;-44
2023/01/05 04:05:39;;;;;;;35.53;5.07;;;10.50;99.90;;;;;;4992605;28;20069;-44
2023/01/05 04:08:05;;;;;;;34.17;5.20;;;10.50;99.90;;;;;;4992439;28;20065;-45
2023/01/05 04:10:30;;;;;;;29.48;4.95;;;10.50;99.90;;;;;;4992501;28;20030;-50
2023/01/05 04:12:56;;;;;;;39.28;5.82;;;10.50;99.90;;;;;;4992530;28;20022;-45
2023/01/05 04:15:22;;;;;;;33.47;4.88;;;10.50;99.90;;;;;;4992328;28;20022;-49
2023/01/05 04:17:47;;;;;;;34.63;4.85;;;10.50;99.90;;;;;;4992417;28;20031;-47
2023/01/05 04:20:13;;;;;;;35.25;4.60;;;10.50;99.90;;;;;;4992016;28;20041;-49
2023/01/05 04:22:39;;;;;;;36.70;4.50;;;10.50;99.90;;;;;;4992239;28;20041;-45
2023/01/05 04:25:05;;;;;;;25.80;3.83;;;10.50;99.90;;;;;;4992201;28;20034;-45
2023/01/05 04:27:31;;;;;;;37.28;5.38;;;10.50;99.90;;;;;;4991968;28;20532;-44
2023/01/05 04:29:56;;;;;;;43.22;6.15;;;10.50;99.90;;;;;;4992315;28;20034;-44
2023/01/05 04:32:22;;;;;;;35.38;4.72;;;10.60;99.90;;;;;;4991988;28;20433;-46
2023/01/05 04:34:47;;;;;;;32.15;5.35;;;10.60;99.90;;;;;;4992158;28;20058;-47
2023/01/05 04:37:13;;;;;;;38.78;6.28;;;10.50;99.90;;;;;;4991735;28;20057;-50
2023/01/05 04:39:38;;;;;;;31.00;4.70;;;10.50;99.90;;;;;;4992077;28;20409;-52
2023/01/05 04:42:04;;;;;;;27.65;4.38;;;10.60;99.90;;;;;;4992033;28;20072;-53
2023/01/05 04:44:30;;;;;;;40.95;6.05;;;10.60;99.90;;;;;;4991756;28;20552;-50
2023/01/05 04:46:55;;;;;;;35.30;6.00;;;10.50;99.90;;;;;;4991868;28;20034;-51
2023/01/05 04:49:21;;;;;;;34.75;5.53;;;10.50;99.90;;;;;;4991732;28;20062;-48
2023/01/05 04:51:46;;;;;;;43.63;6.25;;;10.50;99.90;;;;;;4991690;28;20019;-45
2023/01/05 04:54:12;;;;;;;35.83;5.22;;;10.50;99.90;;;;;;4991641;28;20516;-45
2023/01/05 04:56:38;;;;;;;30.17;4.40;;;10.50;99.90;;;;;;4991257;28;20027;-47
2023/01/05 04:59:03;;;;;;;41.85;6.30;;;10.50;99.90;;;;;;4974121;28;20440;-47
2023/01/05 05:01:29;;;;;;;30.85;4.57;;;10.50;99.90;;;;;;4991608;28;20069;-51
2023/01/05 05:03:55;;;;;;;31.58;4.53;;;10.50;99.90;;;;;;4991672;28;20026;-49
2023/01/05 05:06:20;;;;;;;39.40;4.55;;;10.50;99.90;;;;;;4991135;28;20080;-46
2023/01/05 05:08:46;;;;;;;37.63;4.68;;;10.50;99.90;;;;;;4991473;28;20378;-44
2023/01/05 05:11:12;;;;;;;29.08;4.43;;;10.50;99.90;;;;;;4991488;28;20034;-50
2023/01/05 05:13:37;;;;;;;36.38;4.53;;;10.50;99.90;;;;;;4991406;28;20025;-45
2023/01/05 05:16:03;;;;;;;29.85;5.07;;;10.50;99.90;;;;;;4991469;28;20511;-47
2023/01/05 05:18:28;;;;;;;31.70;5.28;;;10.50;99.90;;;;;;4991115;28;20022;-46
2023/01/05 05:20:54;;;;;;;33.65;5.20;;;10.50;99.90;;;;;;4991248;28;20101;-46
2023/01/05 05:23:20;;;;;;;29.75;4.45;;;10.50;99.90;;;;;;4991204;28;20378;-53
2023/01/05 05:25:50;;;;;;;43.20;6.38;;;10.40;99.90;;;;;;4991492;28;20033;-45
2023/01/05 05:28:16;;;;;;;39.45;5.55;;;10.50;99.90;;;;;;4991293;28;20568;-48
2023/01/05 05:30:41;;;;;;;35.88;5.97;;;10.50;99.90;;;;;;4991126;28;20101;-53
2023/01/05 05:33:07;;;;;;;33.33;4.43;;;10.50;99.90;;;;;;4991266;28;20426;-51
2023/01/05 05:35:32;;;;;;;40.80;4.88;;;10.40;99.90;;;;;;4991017;28;20023;-48
2023/01/05 05:37:58;;;;;;;38.38;4.45;;;10.40;99.90;;;;;;4991228;28;20053;-50
2023/01/05 05:40:25;;;;;;;30.50;4.38;;;10.40;99.90;;;;;;4990974;28;20038;-53
2023/01/05 05:42:50;;;;;;;36.15;4.43;;;10.40;99.90;;;;;;4991057;28;20022;-44
2023/01/05 05:45:16;;;;;;;34.97;4.63;;;10.30;99.90;;;;;;4991514;28;20436;-51
2023/01/05 05:47:42;;;;;;;28.30;4.88;;;10.30;99.90;;;;;;4990994;28;20023;-46
2023/01/05 05:50:09;;;;;;;34.47;5.75;;;10.20;99.90;;;;;;4991110;28;20018;-48
2023/01/05 05:52:34;;;;;;;32.58;5.35;;;10.20;99.90;;;;;;4973727;28;20026;-49
2023/01/05 05:55:00;;;;;;;33.58;4.43;;;10.20;99.90;;;;;;4990954;28;20165;-45
2023/01/05 05:57:26;;;;;;;29.83;5.10;;;10.20;99.90;;;;;;4991053;28;20025;-52
2023/01/05 05:59:51;;;;;;;34.95;5.38;;;10.20;99.90;;;;;;4990861;28;20042;-47
2023/01/05 06:02:18;;;;;;;44.03;5.60;;;10.20;99.90;;;;;;4991076;28;20359;-49
2023/01/05 06:04:44;;;;;;;33.75;4.80;;;10.20;99.90;;;;;;4990725;28;20469;-47
2023/01/05 06:07:09;;;;;;;42.03;4.63;;;10.20;99.90;;;;;;4990915;28;20022;-47
2023/01/05 06:09:35;;;;;;;44.03;6.47;;;10.20;99.90;;;;;;4994011;28;20069;-48
2023/01/05 06:12:01;;;;;;;27.95;4.45;;;10.20;99.90;;;;;;4994791;28;20065;-44
2023/01/05 06:14:26;;;;;;;28.17;5.35;;;10.30;99.90;;;;;;4994840;28;20472;-49
2023/01/05 06:16:52;;;;;;;37.78;5.53;;;10.30;99.90;;;;;;4994705;28;20393;-48
2023/01/05 06:19:18;;;;;;;40.60;5.90;;;10.30;99.90;;;;;;4994482;28;20038;-48
2023/01/05 06:21:43;;;;;;;44.53;4.97;;;10.30;99.90;;;;;;4980980;28;20351;-48
2023/01/05 06:24:09;;;;;;;39.00;5.93;;;10.30;99.90;;;;;;4994487;28;20496;-47
2023/01/05 06:26:34;;;;;;;32.92;5.32;;;10.30;99.90;;;;;;4994476;28;20042;-49
2023/01/05 06:29:00;;;;;;;40.95;5.10;;;10.30;99.90;;;;;;4994396;28;20030;-52
2023/01/05 06:31:26;;;;;;;39.83;5.32;;;10.30;99.90;;;;;;4994286;28;20437;-50
2023/01/05 06:33:51;;;;;;;36.60;5.97;;;10.40;99.90;;;;;;4994204;28;20014;-45
2023/01/05 06:36:17;;;;;;;33.75;5.13;;;10.40;99.90;;;;;;4994210;28;20101;-54
2023/01/05 06:38:43;;;;;;;32.70;5.20;;;10.40;99.90;;;;;;4994313;28;20096;-50
2023/01/05 06:41:09;;;;;;;31.38;5.10;;;10.40;99.90;;;;;;4994247;28;20097;-45
2023/01/05 06:43:34;;;;;;;33.38;4.60;;;10.40;99.90;;;;;;4994314;28;20030;-51
2023/01/05 06:46:00;;;;;;;37.92;5.28;;;10.40;99.90;;;;;;4994042;28;20019;-50
2023/01/05 06:48:26;;;;;;;34.47;5.18;;;10.30;99.90;;;;;;4994155;28;20033;-50
2023/01/05 06:50:51;;;;;;;41.55;6.90;;;10.30;99.90;;;;;;4976778;28;20429;-53
2023/01/05 06:53:17;;;;;;;29.83;4.32;;;10.30;99.90;;;;;;4994031;28;20104;-47
2023/01/05 06:55:43;;;;;;;29.08;4.45;;;10.30;99.90;;;;;;4994073;28;20026;-48
2023/01/05 06:58:09;;;;;;;34.50;4.75;;;10.30;99.90;;;;;;4993866;28;20030;-45
2023/01/05 07:00:35;;;;;;;40.38;4.65;;;10.30;99.90;;;;;;4993835;28;20061;-45
2023/01/05 07:03:00;;;;;;;50.65;5.32;;;10.40;99.90;;;;;;4993278;28;20149;-44
2023/01/05 07:05:26;;;;;;;28.20;4.43;;;10.40;99.90;;;;;;4993875;28;20028;-46
2023/01/05 07:07:52;;;;;;;30.73;4.90;;;10.50;99.90;;;;;;4991599;28;20478;-50
2023/01/05 07:10:18;;;;;;;46.08;5.35;;;10.40;99.90;;;;;;4985012;28;20366;-49
2023/01/05 07:12:43;;;;;;;32.88;4.78;;;10.50;99.90;;;;;;4993567;28;20046;-48
2023/01/05 07:15:09;;;;;;;27.90;4.88;;;10.50;99.90;;;;;;4993446;28;20023;-53
2023/01/05 07:17:35;;;;;;;41.92;4.93;;;10.50;99.90;;;;;;4993409;28;20022;-46
2023/01/05 07:20:03;;;;;;;42.42;5.85;;;10.50;99.90;;;;;;4992752;28;20034;-45
2023/01/05 07:22:29;;;;;;;36.80;4.47;;;10.50;99.90;;;;;;4975806;28;20026;-46
2023/01/05 07:24:56;;;;;;;39.63;5.13;;;10.50;99.90;;;;;;4993260;28;20470;-45
2023/01/05 07:27:22;;;;;;;34.35;4.80;;;10.50;99.90;;;;;;4993066;28;20061;-47
2023/01/05 07:29:48;;;;;;;47.92;6.32;;;10.50;99.90;;;;;;4967915;28;20026;-49
2023/01/05 07:32:14;;;;;;;35.65;4.47;;;10.60;99.90;;;;;;4993125;28;20161;-45
2023/01/05 07:34:39;;;;;;;42.45;5.47;;;10.60;99.90;;;;;;4993046;28;20138;-51
2023/01/05 07:37:05;;;;;;;40.78;4.68;;;10.60;99.90;;;;;;4975659;28;20109;-49
2023/01/05 07:39:31;;;;;;;45.80;5.80;;;10.60;99.90;;;;;;4992998;28;20030;-50
2023/01/05 07:41:56;;;;;;;36.95;5.22;;;10.60;99.90;;;;;;4993040;28;20050;-48
2023/01/05 07:44:22;;;;;;;33.13;5.05;;;10.60;99.90;;;;;;4975547;28;20030;-52
2023/01/05 07:46:48;;;;;;;41.50;4.60;;;10.70;99.90;;;;;;4990956;28;20033;-49
2023/01/05 07:49:14;;;;;;;37.17;5.70;;;10.70;99.90;;;;;;4993175;28;20096;-46
2023/01/05 07:51:40;;;;;;;31.30;4.78;;;10.70;99.90;;;;;;4992793;28;20077;-45
2023/01/05 07:54:05;;;;;;;38.90;5.47;;;10.70;99.90;;;;;;4992679;28;20022;-47
2023/01/05 07:56:31;;;;;;;29.60;4.28;;;10.70;99.90;;;;;;4992656;28;20011;-44
2023/01/05 07:58:58;;;;;;;47.20;5.38;;;10.70;99.90;;;;;;4992693;28;20030;-45
2023/01/05 08:01:23;;;;;;;31.02;4.13;;;10.70;99.90;;;;;;4992524;28;20034;-44
2023/01/05 08:03:49;;;;;;;37.72;5.07;;;10.70;99.90;;;;;;4992759;28;20025;-44
2023/01/05 08:06:17;;;;;;;36.83;3.95;;;10.70;99.90;;;;;;4992582;28;20656;-44
2023/01/05 08:08:44;;;;;;;35.22;3.85;;;10.70;99.90;;;;;;4992608;28;20030;-49
2023/01/05 08:11:11;;;;;;;26.15;3.92;;;10.80;99.90;;;;;;4992481;28;20030;-47
2023/01/05 08:16:21;;;;;;;21.33;3.35;;;10.80;99.90;;;;;;4992279;28;20397;-48
2023/01/05 08:18:47;;;;;;;26.35;3.75;;;10.90;99.90;;;;;;4991879;28;20033;-47
2023/01/05 08:21:13;;;;;;;34.45;3.75;;;10.90;99.90;;;;;;4992279;28;20027;-45
2023/01/05 08:23:38;;;;;;;22.00;3.05;;;11.00;99.90;;;;;;4992109;28;20448;-47
2023/01/05 08:26:06;;;;;;;23.13;2.83;;;11.00;99.90;;;;;;4992126;28;20018;-44
2023/01/05 08:28:34;;;;;;;20.98;2.85;;;11.00;99.90;;;;;;4992112;28;20399;-45
2023/01/05 08:31:04;;;;;;;15.35;2.25;;;11.00;99.90;;;;;;4992004;28;20027;-44
2023/01/05 08:33:30;;;;;;;11.32;2.20;;;11.00;99.90;;;;;;4988170;28;20516;-46
2023/01/05 08:35:56;;;;;;;10.48;1.92;;;11.10;99.90;;;;;;4989154;28;20026;-45
2023/01/05 08:38:22;;;;;;;13.80;2.17;;;11.00;99.90;;;;;;4991899;28;20027;-44
2023/01/05 08:40:48;;;;;;;16.65;2.67;;;11.10;99.90;;;;;;4991450;28;20552;-47
2023/01/05 08:43:14;;;;;;;13.00;2.30;;;11.10;99.90;;;;;;4992128;28;20470;-50
2023/01/05 08:45:40;;;;;;;16.40;2.17;;;11.20;99.90;;;;;;4991877;28;20034;-50
2023/01/05 08:48:05;;;;;;;9.95;2.45;;;11.20;99.90;;;;;;4991680;28;20033;-45
2023/01/05 08:50:31;;;;;;;15.93;2.53;;;11.20;99.90;;;;;;4991817;28;20120;-47
2023/01/05 08:52:57;;;;;;;13.93;2.70;;;11.20;99.90;;;;;;4991665;28;20061;-44
2023/01/05 08:55:23;;;;;;;13.82;2.65;;;11.20;99.90;;;;;;4991650;28;20057;-50
2023/01/05 08:57:48;;;;;;;13.32;2.08;;;11.30;99.90;;;;;;4971810;28;20038;-48
2023/01/05 09:00:16;;;;;;;12.07;2.17;;;11.30;99.90;;;;;;4980857;28;20485;-49
2023/01/05 09:02:43;;;;;;;13.07;2.65;;;11.30;99.90;;;;;;4991351;28;20022;-50
2023/01/05 09:05:09;;;;;;;7.20;2.08;;;11.20;99.90;;;;;;4991437;28;20033;-50
2023/01/05 09:07:34;;;;;;;11.27;2.10;;;11.30;99.90;;;;;;4991572;28;20023;-48
2023/01/05 09:10:00;;;;;;;9.43;2.53;;;11.20;99.90;;;;;;4991248;28;20030;-47
2023/01/05 09:12:25;;;;;;;5.93;1.98;;;11.30;99.90;;;;;;4973754;28;20053;-48
2023/01/05 09:14:53;;;;;;;4.57;1.65;;;11.30;99.90;;;;;;4991418;28;20026;-44
2023/01/05 09:17:18;;;;;;;6.35;1.83;;;11.30;99.90;;;;;;4991358;28;20073;-50
2023/01/05 09:19:44;;;;;;;5.25;1.80;;;11.20;99.90;;;;;;4991294;28;20429;-45
2023/01/05 09:22:10;;;;;;;6.45;2.20;;;11.30;99.90;;;;;;4991258;28;20113;-45
2023/01/05 09:24:36;;;;;;;7.90;2.08;;;11.30;99.90;;;;;;4991237;28;20030;-49
2023/01/05 09:27:04;;;;;;;6.28;1.85;;;11.30;99.90;;;;;;4991304;28;20462;-45
2023/01/05 09:29:30;;;;;;;6.50;1.90;;;11.40;99.90;;;;;;4986889;28;20046;-50
2023/01/05 09:31:55;;;;;;;5.93;1.92;;;11.40;99.90;;;;;;4988478;28;20025;-44
2023/01/05 09:34:21;;;;;;;3.72;1.50;;;11.40;99.90;;;;;;4992919;28;20030;-48
2023/01/05 09:36:47;;;;;;;4.47;1.65;;;11.50;99.90;;;;;;4991799;28;20026;-50
2023/01/05 09:39:12;;;;;;;2.95;1.30;;;11.50;99.90;;;;;;4988119;28;20082;-49
2023/01/05 09:42:11;;;;;;;2.78;1.38;;;11.50;99.90;;;;;;4978001;28;20042;-47
2023/01/05 09:44:45;;;;;;;4.15;1.25;;;11.60;99.90;;;;;;4973747;28;20038;-51
2023/01/05 09:47:31;;;;;;;4.55;1.17;;;11.60;99.90;;;;;;4988107;28;20074;-45
2023/01/05 09:49:58;;;;;;;4.68;1.20;;;11.60;99.90;;;;;;5000083;28;20027;-45
2023/01/05 09:52:24;;;;;;;3.67;1.00;;;11.60;99.90;;;;;;4997793;28;20481;-47
2023/01/05 09:54:50;;;;;;;4.03;1.30;;;11.70;99.90;;;;;;4996241;28;20041;-50
2023/01/05 09:57:22;;;;;;;6.75;1.52;;;11.70;99.90;;;;;;4994074;28;20034;-46
2023/01/05 09:59:51;;;;;;;3.05;1.17;;;11.70;99.90;;;;;;4992168;28;20045;-55
2023/01/05 10:02:35;;;;;;;3.60;1.02;;;11.90;99.90;;;;;;4981080;28;20054;-54
2023/01/05 10:05:04;;;;;;;4.13;1.15;;;11.90;99.90;;;;;;4991346;28;20478;-50
2023/01/05 10:07:50;;;;;;;2.72;1.10;;;12.00;99.90;;;;;;4995949;28;20034;-49
2023/01/05 10:10:25;;;;;;;3.25;1.42;;;12.00;99.90;;;;;;4996802;28;20170;-48
2023/01/05 10:13:02;;;;;;;2.47;1.08;;;12.10;99.90;;;;;;4997088;28;20109;-44
2023/01/05 10:15:40;;;;;;;2.50;1.00;;;12.20;99.90;;;;;;4996070;28;20034;-45
2023/01/05 10:18:16;;;;;;;4.07;1.13;;;12.30;99.90;;;;;;4981999;28;20022;-53
2023/01/05 10:21:03;;;;;;;2.70;1.00;;;12.20;99.90;;;;;;4992515;28;20034;-50
2023/01/05 10:23:48;;;;;;;3.42;1.20;;;12.20;99.90;;;;;;4996412;28;20022;-49
2023/01/05 10:26:40;;;;;;;3.40;0.98;;;12.10;99.90;;;;;;4992555;28;20042;-49
2023/01/05 10:29:31;;;;;;;4.35;1.00;;;12.10;99.90;;;;;;4995591;28;20042;-46
2023/01/05 10:32:03;;;;;;;4.35;1.67;;;12.10;99.90;;;;;;4994352;28;20081;-48
2023/01/05 10:34:43;;;;;;;8.45;1.70;;;12.00;99.90;;;;;;4996345;28;20062;-45
2023/01/05 10:37:30;;;;;;;3.90;1.30;;;12.00;99.90;;;;;;4982049;28;20095;-46
2023/01/05 10:40:27;;;;;;;8.30;1.63;;;11.90;99.90;;;;;;4996984;28;20035;-51
2023/01/05 10:43:11;;;;;;;4.75;1.33;;;11.90;99.90;;;;;;4996775;28;20525;-45
2023/01/05 10:45:37;;;;;;;6.05;1.65;;;11.80;99.90;;;;;;4996429;28;20096;-52
2023/01/05 10:48:10;;;;;;;7.22;2.05;;;11.90;99.90;;;;;;4996291;28;20026;-47
2023/01/05 10:50:37;;;;;;;4.72;1.42;;;11.90;99.90;;;;;;4996772;28;20058;-48
2023/01/05 10:53:25;;;;;;;5.32;1.40;;;11.90;99.90;;;;;;4990373;28;20034;-44
2023/01/05 10:56:03;;;;;;;7.10;1.40;;;11.90;99.90;;;;;;4974983;28;20033;-48
2023/01/05 10:58:33;;;;;;;4.00;1.20;;;12.00;99.90;;;;;;4992792;28;20034;-48
2023/01/05 11:01:04;;;;;;;13.35;3.10;;;12.10;99.90;;;;;;4990766;28;20564;-46
2023/01/05 11:03:43;;;;;;;7.50;1.70;;;12.20;99.90;;;;;;4988487;28;20098;-53
2023/01/05 11:06:22;;;;;;;11.40;2.42;;;12.20;99.90;;;;;;4986796;28;20029;-48
2023/01/05 11:08:48;;;;;;;5.55;1.10;;;12.30;99.90;;;;;;4981893;28;20038;-50
2023/01/05 11:11:23;;;;;;;9.18;1.70;;;12.50;99.90;;;;;;4986933;28;20022;-52
2023/01/05 11:13:52;;;;;;;7.47;1.42;;;12.60;99.90;;;;;;4993286;28;20030;-49
2023/01/05 11:16:21;;;;;;;10.32;1.83;;;12.60;99.90;;;;;;4993431;28;20041;-45
2023/01/05 11:18:51;;;;;;;8.43;1.67;;;12.60;99.90;;;;;;4991166;28;20033;-45
2023/01/05 11:21:22;;;;;;;7.55;1.58;;;12.60;99.90;;;;;;4993525;28;20046;-50
2023/01/05 11:23:56;;;;;;;8.57;1.73;;;12.50;99.90;;;;;;4993356;28;20020;-44
2023/01/05 11:26:28;;;;;;;6.53;1.80;;;12.50;99.90;;;;;;4993450;28;20509;-48
2023/01/05 11:29:12;;;;;;;5.20;1.35;;;12.40;99.90;;;;;;4993202;28;20033;-44
2023/01/05 11:31:46;;;;;;;8.82;1.70;;;12.50;99.90;;;;;;4988521;28;20691;-46
2023/01/05 11:34:27;;;;;;;11.95;2.13;;;12.50;99.90;;;;;;4997314;28;20113;-47
2023/01/05 11:37:06;;;;;;;13.15;1.85;;;12.50;99.90;;;;;;4993215;28;20027;-48
2023/01/05 11:39:34;;;;;;;5.95;1.73;;;12.40;99.90;;;;;;4992232;28;20034;-51
2023/01/05 11:42:23;;;;;;;9.32;1.90;;;12.50;99.90;;;;;;4993106;28;20033;-48
2023/01/05 11:44:59;;;;;;;9.80;1.92;;;12.60;99.90;;;;;;4989159;28;20029;-45
2023/01/05 11:47:38;;;;;;;9.10;2.00;;;12.70;99.90;;;;;;4992095;28;20030;-45
2023/01/05 11:50:20;;;;;;;13.82;2.17;;;12.80;99.90;;;;;;4987465;28;20050;-47
2023/01/05 11:52:49;;;;;;;11.82;2.65;;;12.80;99.90;;;;;;4976942;28;20042;-44
2023/01/05 11:55:31;;;;;;;14.50;2.80;;;12.70;99.90;;;;;;4981184;28;20046;-45
2023/01/05 11:58:24;;;;;;;10.73;2.58;;;12.70;99.90;;;;;;4992294;28;20054;-45
2023/01/05 12:01:14;;;;;;;13.98;2.30;;;12.80;99.90;;;;;;4989668;28;20038;-46
2023/01/05 12:03:42;;;;;;;15.45;2.38;;;12.90;99.90;;;;;;4990905;28;20042;-47
2023/01/05 12:06:45;;;;;;;9.77;2.20;;;12.80;99.90;;;;;;4992780;28;20042;-46
2023/01/05 12:09:11;;;;;;;14.75;2.35;;;12.80;99.90;;;;;;4978705;28;20065;-44
2023/01/05 12:12:11;;;;;;;11.52;1.92;;;12.70;99.90;;;;;;4989327;28;20698;-45
2023/01/05 12:15:11;;;;;;;10.85;2.05;;;12.80;99.90;;;;;;4975921;28;20030;-48
2023/01/05 12:17:58;;;;;;;8.57;1.77;;;13.20;99.90;;;;;;4986991;28;20031;-44
2023/01/05 12:20:39;;;;;;;11.20;2.03;;;13.40;99.90;;;;;;4989069;28;20034;-49
2023/01/05 12:23:23;;;;;;;15.57;1.95;;;13.50;99.90;;;;;;4992296;28;20026;-43
2023/01/05 12:26:19;;;;;;;10.40;1.65;;;13.40;99.90;;;;;;4988301;28;20026;-43
2023/01/05 12:29:09;;;;;;;9.38;2.05;;;13.40;99.90;;;;;;4991976;28;20041;-43
2023/01/05 12:32:10;;;;;;;12.65;2.13;;;13.30;99.90;;;;;;4974591;28;20098;-43
2023/01/05 12:34:44;;;;;;;13.95;2.50;;;13.10;99.90;;;;;;5005920;28;20099;-44
2023/01/05 12:37:25;;;;;;;10.73;2.20;;;13.00;99.90;;;;;;4998064;28;20026;-49
2023/01/05 12:40:21;;;;;;;17.30;2.38;;;12.90;99.90;;;;;;4984734;28;20106;-53
2023/01/05 12:43:09;;;;;;;15.55;2.33;;;12.90;99.90;;;;;;4988318;28;20037;-52
2023/01/05 12:46:10;;;;;;;21.60;2.65;;;12.90;99.90;;;;;;4981579;28;20034;-50
2023/01/05 12:48:43;;;;;;;17.70;2.40;;;12.90;99.90;;;;;;4980024;28;20027;-49
2023/01/05 12:51:24;;;;;;;15.30;2.83;;;13.00;99.90;;;;;;4989771;28;20019;-45
2023/01/05 12:53:59;;;;;;;19.20;2.92;;;12.90;99.90;;;;;;4984459;28;20352;-50
2023/01/05 12:56:35;;;;;;;15.20;2.83;;;12.90;99.90;;;;;;4990108;28;20023;-47
2023/01/05 12:59:33;;;;;;;16.75;3.67;;;12.90;99.90;;;;;;4976337;28;20027;-50
2023/01/05 13:02:24;;;;;;;14.80;3.20;;;12.90;99.90;;;;;;4966409;28;20320;-46
2023/01/05 13:05:01;;;;;;;24.70;3.33;;;12.90;99.90;;;;;;4985474;28;20121;-44
2023/01/05 13:08:00;;;;;;;21.77;4.22;;;12.90;99.90;;;;;;4991349;28;20026;-46
2023/01/05 13:10:28;;;;;;;14.88;2.70;;;13.00;99.90;;;;;;4935476;28;20043;-48
2023/01/05 13:13:01;;;;;;;24.00;3.22;;;12.90;99.90;;;;;;4986145;28;20169;-43
2023/01/05 13:15:43;;;;;;;27.33;4.13;;;12.90;99.90;;;;;;4985101;28;20031;-46
2023/01/05 13:18:18;;;;;;;23.13;3.75;;;12.80;99.90;;;;;;4973383;28;20385;-42
2023/01/05 13:20:55;;;;;;;23.92;3.08;;;12.80;99.90;;;;;;4978794;28;20080;-43
2023/01/05 13:23:32;;;;;;;22.23;3.22;;;12.80;99.90;;;;;;4988936;28;20026;-49
2023/01/05 13:26:04;;;;;;;22.17;4.50;;;12.80;99.90;;;;;;4990655;28;20484;-53
2023/01/05 13:28:31;;;;;;;22.75;3.85;;;12.70;99.90;;;;;;4989379;28;20030;-50
2023/01/05 13:31:04;;;;;;;26.38;3.30;;;12.70;99.90;;;;;;4990068;28;20046;-48
2023/01/05 13:34:01;;;;;;;28.05;3.50;;;12.70;99.90;;;;;;4991129;28;20076;-46